Station Historical Data
Daily Summary for January 7, 2017 Units:  Both    English   Metric
« Previous Day
Next Day »
Daily Weekly Monthly Yearly Custom
  High: Low: Average:
Temperature: 18.2 °F /  -7.7 °C 4.4 °F /  -15.3 °C 11.5 °F /  -11.4 °C
Dew Point: 12.8 °F /  -10.7 °C -0.8 °F /  -18.2 °C 4.5 °F /  -15.3 °C
Humidity: 85% 64% 73%
Wind Speed: 15.0mph /  24.1km/h - 3.2mph /  5.1km/h
Wind Gust: 20.0mph /  32.2km/h - -
Wind- - WSW
Pressure: 30.41 in /  1029.7 hPa 30.30 in /  1026 hPa -
Precipitation: 0.00 in /  0 mm    
Historical Graphs
 
 
Tabular Data for January 7, 2017
Time Temperature Dew Point Pressure Wind Wind Speed Wind Gust Humidity Rainfall Rate (Hourly)
00:04 9.6 °F /  -12.4 °C 2.7 °F /  -16.3 °C 30.34in /  1027.3hPa Calm     73% 0.00in /  0mm
00:09 9.8 °F /  -12.3 °C 2.9 °F /  -16.2 °C 30.35in /  1027.7hPa Calm     73% 0.00in /  0mm
00:14 9.8 °F /  -12.3 °C 2.6 °F /  -16.3 °C 30.35in /  1027.7hPa Calm     72% 0.00in /  0mm
00:19 9.8 °F /  -12.3 °C 2.6 °F /  -16.3 °C 30.35in /  1027.7hPa Calm     72% 0.00in /  0mm
00:24 9.8 °F /  -12.3 °C 2.6 °F /  -16.3 °C 30.36in /  1028hPa Calm     72% 0.00in /  0mm
00:29 9.7 °F /  -12.4 °C 2.2 °F /  -16.6 °C 30.36in /  1028hPa Calm     71% 0.00in /  0mm
00:34 9.7 °F /  -12.4 °C 2.2 °F /  -16.6 °C 30.36in /  1028hPa Calm     71% 0.00in /  0mm
00:39 9.6 °F /  -12.4 °C 2.1 °F /  -16.6 °C 30.36in /  1028hPa Calm     71% 0.00in /  0mm
00:44 9.4 °F /  -12.6 °C 1.9 °F /  -16.7 °C 30.35in /  1027.7hPa Calm     71% 0.00in /  0mm
00:49 9.3 °F /  -12.6 °C 1.8 °F /  -16.8 °C 30.35in /  1027.7hPa Calm     71% 0.00in /  0mm
00:54 9.3 °F /  -12.6 °C 2.1 °F /  -16.6 °C 30.35in /  1027.7hPa Calm     72% 0.00in /  0mm
00:59 9.1 °F /  -12.7 °C 1.9 °F /  -16.7 °C 30.35in /  1027.7hPa Calm     72% 0.00in /  0mm
01:04 9.1 °F /  -12.7 °C 1.9 °F /  -16.7 °C 30.35in /  1027.7hPa SW 1.0mph /  1.6km/h 4.0mph /  6.4km/h 72% 0.00in /  0mm
01:09 9.1 °F /  -12.7 °C 1.6 °F /  -16.9 °C 30.35in /  1027.7hPa SW 1.0mph /  1.6km/h 2.0mph /  3.2km/h 71% 0.00in /  0mm
01:14 9.1 °F /  -12.7 °C 1.6 °F /  -16.9 °C 30.35in /  1027.7hPa SSW 1.0mph /  1.6km/h 3.0mph /  4.8km/h 71% 0.00in /  0mm
01:19 9.0 °F /  -12.8 °C 1.2 °F /  -17.1 °C 30.35in /  1027.7hPa SSW 2.0mph /  3.2km/h 4.0mph /  6.4km/h 70% 0.00in /  0mm
01:24 9.1 °F /  -12.7 °C 1.3 °F /  -17.1 °C 30.35in /  1027.7hPa SW 1.0mph /  1.6km/h 4.0mph /  6.4km/h 70% 0.00in /  0mm
01:29 9.1 °F /  -12.7 °C 1.0 °F /  -17.2 °C 30.35in /  1027.7hPa WSW 1.0mph /  1.6km/h 3.0mph /  4.8km/h 69% 0.00in /  0mm
01:34 9.1 °F /  -12.7 °C 1.0 °F /  -17.2 °C 30.36in /  1028hPa Calm   3.0mph /  4.8km/h 69% 0.00in /  0mm
01:39 9.1 °F /  -12.7 °C 1.0 °F /  -17.2 °C 30.36in /  1028hPa Calm     69% 0.00in /  0mm
01:44 9.1 °F /  -12.7 °C 1.0 °F /  -17.2 °C 30.35in /  1027.7hPa Calm     69% 0.00in /  0mm
01:49 9.0 °F /  -12.8 °C 0.9 °F /  -17.3 °C 30.36in /  1028hPa Calm     69% 0.00in /  0mm
01:54 8.9 °F /  -12.8 °C 0.8 °F /  -17.3 °C 30.36in /  1028hPa Calm     69% 0.00in /  0mm
01:59 8.8 °F /  -12.9 °C 1.0 °F /  -17.2 °C 30.36in /  1028hPa Calm   2.0mph /  3.2km/h 70% 0.00in /  0mm
02:04 8.7 °F /  -12.9 °C 1.2 °F /  -17.1 °C 30.36in /  1028hPa Calm   3.0mph /  4.8km/h 71% 0.00in /  0mm
02:09 8.6 °F /  -13 °C 1.1 °F /  -17.2 °C 30.37in /  1028.3hPa Calm     71% 0.00in /  0mm
02:14 8.6 °F /  -13 °C 1.1 °F /  -17.2 °C 30.37in /  1028.3hPa Calm     71% 0.00in /  0mm
02:19 8.5 °F /  -13.1 °C 1.0 °F /  -17.2 °C 30.37in /  1028.3hPa Calm     71% 0.00in /  0mm
02:24 8.5 °F /  -13.1 °C 1.0 °F /  -17.2 °C 30.37in /  1028.3hPa Calm     71% 0.00in /  0mm
02:29 8.4 °F /  -13.1 °C 0.6 °F /  -17.4 °C 30.37in /  1028.3hPa Calm     70% 0.00in /  0mm
02:34 8.3 °F /  -13.2 °C 0.5 °F /  -17.5 °C 30.38in /  1028.7hPa Calm     70% 0.00in /  0mm
02:39 8.1 °F /  -13.3 °C 0.3 °F /  -17.6 °C 30.38in /  1028.7hPa Calm     70% 0.00in /  0mm
02:44 8.0 °F /  -13.3 °C 0.2 °F /  -17.7 °C 30.38in /  1028.7hPa Calm     70% 0.00in /  0mm
02:49 7.7 °F /  -13.5 °C 0.2 °F /  -17.7 °C 30.38in /  1028.7hPa Calm     71% 0.00in /  0mm
02:54 7.5 °F /  -13.6 °C 0.1 °F /  -17.7 °C 30.38in /  1028.7hPa Calm     71% 0.00in /  0mm
02:59 7.3 °F /  -13.7 °C 0.2 °F /  -17.7 °C 30.38in /  1028.7hPa Calm     72% 0.00in /  0mm
03:04 7.1 °F /  -13.8 °C 0.3 °F /  -17.6 °C 30.38in /  1028.7hPa Calm     73% 0.00in /  0mm
03:09 6.9 °F /  -13.9 °C 0.1 °F /  -17.7 °C 30.38in /  1028.7hPa Calm     73% 0.00in /  0mm
03:14 6.7 °F /  -14.1 °C 0.2 °F /  -17.7 °C 30.38in /  1028.7hPa Calm     74% 0.00in /  0mm
03:19 6.7 °F /  -14.1 °C 0.5 °F /  -17.5 °C 30.37in /  1028.3hPa Calm     75% 0.00in /  0mm
03:24 6.5 °F /  -14.2 °C 0.3 °F /  -17.6 °C 30.37in /  1028.3hPa Calm     75% 0.00in /  0mm
03:29 6.5 °F /  -14.2 °C 0.5 °F /  -17.5 °C 30.37in /  1028.3hPa Calm     76% 0.00in /  0mm
03:34 6.4 °F /  -14.2 °C 0.4 °F /  -17.6 °C 30.37in /  1028.3hPa Calm     76% 0.00in /  0mm
03:39 6.3 °F /  -14.3 °C 0.3 °F /  -17.6 °C 30.37in /  1028.3hPa Calm     76% 0.00in /  0mm
03:44 6.3 °F /  -14.3 °C 0.3 °F /  -17.6 °C 30.37in /  1028.3hPa Calm     76% 0.00in /  0mm
03:49 6.2 °F /  -14.3 °C 0.3 °F /  -17.6 °C 30.37in /  1028.3hPa Calm     76% 0.00in /  0mm
03:54 6.1 °F /  -14.4 °C 0.2 °F /  -17.7 °C 30.37in /  1028.3hPa Calm     76% 0.00in /  0mm
03:59 5.9 °F /  -14.5 °C 0.0 °F /  -17.8 °C 30.37in /  1028.3hPa Calm     76% 0.00in /  0mm
04:04 5.7 °F /  -14.6 °C -0.2 °F /  -17.9 °C 30.37in /  1028.3hPa Calm     76% 0.00in /  0mm
04:09 5.5 °F /  -14.7 °C -0.4 °F /  -18 °C 30.37in /  1028.3hPa Calm     76% 0.00in /  0mm
04:14 5.4 °F /  -14.8 °C -0.2 °F /  -17.9 °C 30.37in /  1028.3hPa Calm     77% 0.00in /  0mm
04:19 5.3 °F /  -14.8 °C -0.3 °F /  -17.9 °C 30.37in /  1028.3hPa Calm     77% 0.00in /  0mm
04:24 5.1 °F /  -14.9 °C -0.5 °F /  -18.1 °C 30.37in /  1028.3hPa Calm     77% 0.00in /  0mm
04:29 4.9 °F /  -15.1 °C -0.7 °F /  -18.2 °C 30.37in /  1028.3hPa Calm     77% 0.00in /  0mm
04:34 4.8 °F /  -15.1 °C -0.8 °F /  -18.2 °C 30.37in /  1028.3hPa Calm     77% 0.00in /  0mm
04:39 4.6 °F /  -15.2 °C -0.8 °F /  -18.2 °C 30.37in /  1028.3hPa Calm     78% 0.00in /  0mm
04:44 4.5 °F /  -15.3 °C -0.8 °F /  -18.2 °C 30.37in /  1028.3hPa Calm     78% 0.00in /  0mm
04:49 4.4 °F /  -15.3 °C -0.7 °F /  -18.2 °C 30.38in /  1028.7hPa Calm     79% 0.00in /  0mm
04:54 4.4 °F /  -15.3 °C -0.7 °F /  -18.2 °C 30.38in /  1028.7hPa Calm     79% 0.00in /  0mm
04:59 4.4 °F /  -15.3 °C -0.4 °F /  -18 °C 30.38in /  1028.7hPa Calm     80% 0.00in /  0mm
05:04 4.5 °F /  -15.3 °C -0.3 °F /  -17.9 °C 30.38in /  1028.7hPa Calm     80% 0.00in /  0mm
05:09 4.7 °F /  -15.2 °C 0.2 °F /  -17.7 °C 30.38in /  1028.7hPa Calm     81% 0.00in /  0mm
05:14 4.8 °F /  -15.1 °C 0.2 °F /  -17.7 °C 30.38in /  1028.7hPa Calm     81% 0.00in /  0mm
05:19 4.9 °F /  -15.1 °C 0.3 °F /  -17.6 °C 30.38in /  1028.7hPa Calm     81% 0.00in /  0mm
05:24 5.0 °F /  -15 °C 0.4 °F /  -17.6 °C 30.38in /  1028.7hPa Calm     81% 0.00in /  0mm
05:29 5.1 °F /  -14.9 °C 0.5 °F /  -17.5 °C 30.38in /  1028.7hPa Calm     81% 0.00in /  0mm
05:34 5.3 °F /  -14.8 °C 0.7 °F /  -17.4 °C 30.38in /  1028.7hPa ESE 1.0mph /  1.6km/h 3.0mph /  4.8km/h 81% 0.00in /  0mm
05:39 5.4 °F /  -14.8 °C 1.1 °F /  -17.2 °C 30.38in /  1028.7hPa Calm   3.0mph /  4.8km/h 82% 0.00in /  0mm
05:44 5.6 °F /  -14.7 °C 1.3 °F /  -17.1 °C 30.38in /  1028.7hPa ESE 1.0mph /  1.6km/h 2.0mph /  3.2km/h 82% 0.00in /  0mm
05:49 5.6 °F /  -14.7 °C 1.3 °F /  -17.1 °C 30.38in /  1028.7hPa ESE 2.0mph /  3.2km/h 3.0mph /  4.8km/h 82% 0.00in /  0mm
05:54 5.7 °F /  -14.6 °C 1.4 °F /  -17 °C 30.38in /  1028.7hPa SSE 1.0mph /  1.6km/h 3.0mph /  4.8km/h 82% 0.00in /  0mm
05:59 5.7 °F /  -14.6 °C 1.7 °F /  -16.8 °C 30.38in /  1028.7hPa SSE 1.0mph /  1.6km/h 4.0mph /  6.4km/h 83% 0.00in /  0mm
06:04 5.9 °F /  -14.5 °C 2.1 °F /  -16.6 °C 30.38in /  1028.7hPa SSW 2.0mph /  3.2km/h 3.0mph /  4.8km/h 84% 0.00in /  0mm
06:09 6.1 °F /  -14.4 °C 2.3 °F /  -16.5 °C 30.39in /  1029hPa Calm   3.0mph /  4.8km/h 84% 0.00in /  0mm
06:14 6.2 °F /  -14.3 °C 2.4 °F /  -16.4 °C 30.39in /  1029hPa SSW 1.0mph /  1.6km/h 3.0mph /  4.8km/h 84% 0.00in /  0mm
06:19 6.3 °F /  -14.3 °C 2.5 °F /  -16.4 °C 30.39in /  1029hPa South 1.0mph /  1.6km/h 2.0mph /  3.2km/h 84% 0.00in /  0mm
06:24 6.4 °F /  -14.2 °C 2.6 °F /  -16.3 °C 30.39in /  1029hPa Calm   3.0mph /  4.8km/h 84% 0.00in /  0mm
06:29 6.5 °F /  -14.2 °C 2.7 °F /  -16.3 °C 30.38in /  1028.7hPa Calm   3.0mph /  4.8km/h 84% 0.00in /  0mm
06:34 6.6 °F /  -14.1 °C 3.0 °F /  -16.1 °C 30.39in /  1029hPa Calm   2.0mph /  3.2km/h 85% 0.00in /  0mm
06:39 6.7 °F /  -14.1 °C 3.1 °F /  -16.1 °C 30.38in /  1028.7hPa Calm   1.0mph /  1.6km/h 85% 0.00in /  0mm
06:44 6.7 °F /  -14.1 °C 3.1 °F /  -16.1 °C 30.39in /  1029hPa Calm   1.0mph /  1.6km/h 85% 0.00in /  0mm
06:49 6.7 °F /  -14.1 °C 2.9 °F /  -16.2 °C 30.39in /  1029hPa Calm     84% 0.00in /  0mm
06:54 6.8 °F /  -14 °C 3.0 °F /  -16.1 °C 30.39in /  1029hPa Calm     84% 0.00in /  0mm
06:59 6.9 °F /  -13.9 °C 3.3 °F /  -15.9 °C 30.39in /  1029hPa Calm     85% 0.00in /  0mm
07:04 6.9 °F /  -13.9 °C 3.3 °F /  -15.9 °C 30.39in /  1029hPa Calm   3.0mph /  4.8km/h 85% 0.00in /  0mm
07:09 7.0 °F /  -13.9 °C 3.4 °F /  -15.9 °C 30.39in /  1029hPa SE 1.0mph /  1.6km/h 3.0mph /  4.8km/h 85% 0.00in /  0mm
07:14 7.1 °F /  -13.8 °C 3.5 °F /  -15.8 °C 30.39in /  1029hPa SE 3.0mph /  4.8km/h 3.0mph /  4.8km/h 85% 0.00in /  0mm
07:19 7.2 °F /  -13.8 °C 3.6 °F /  -15.8 °C 30.39in /  1029hPa SE 1.0mph /  1.6km/h 3.0mph /  4.8km/h 85% 0.00in /  0mm
07:24 7.3 °F /  -13.7 °C 3.7 °F /  -15.7 °C 30.39in /  1029hPa SE 2.0mph /  3.2km/h 3.0mph /  4.8km/h 85% 0.00in /  0mm
07:29 7.4 °F /  -13.7 °C 3.8 °F /  -15.7 °C 30.39in /  1029hPa Calm   2.0mph /  3.2km/h 85% 0.00in /  0mm
07:34 7.4 °F /  -13.7 °C 3.8 °F /  -15.7 °C 30.40in /  1029.3hPa Calm   2.0mph /  3.2km/h 85% 0.00in /  0mm
07:39 7.4 °F /  -13.7 °C 3.6 °F /  -15.8 °C 30.40in /  1029.3hPa Calm   1.0mph /  1.6km/h 84% 0.00in /  0mm
07:44 7.5 °F /  -13.6 °C 3.7 °F /  -15.7 °C 30.40in /  1029.3hPa Calm     84% 0.00in /  0mm
07:49 7.5 °F /  -13.6 °C 3.7 °F /  -15.7 °C 30.40in /  1029.3hPa Calm     84% 0.00in /  0mm
07:54 7.4 °F /  -13.7 °C 3.6 °F /  -15.8 °C 30.40in /  1029.3hPa SE 1.0mph /  1.6km/h 3.0mph /  4.8km/h 84% 0.00in /  0mm
07:59 7.5 °F /  -13.6 °C 3.7 °F /  -15.7 °C 30.40in /  1029.3hPa SE 2.0mph /  3.2km/h 3.0mph /  4.8km/h 84% 0.00in /  0mm
08:04 7.4 °F /  -13.7 °C 3.6 °F /  -15.8 °C 30.40in /  1029.3hPa Calm   2.0mph /  3.2km/h 84% 0.00in /  0mm
08:09 7.4 °F /  -13.7 °C 3.6 °F /  -15.8 °C 30.40in /  1029.3hPa Calm     84% 0.00in /  0mm
08:14 7.5 °F /  -13.6 °C 3.7 °F /  -15.7 °C 30.40in /  1029.3hPa Calm     84% 0.00in /  0mm
08:19 7.6 °F /  -13.6 °C 3.8 °F /  -15.7 °C 30.40in /  1029.3hPa Calm     84% 0.00in /  0mm
08:24 7.7 °F /  -13.5 °C 3.9 °F /  -15.6 °C 30.40in /  1029.3hPa SE 1.0mph /  1.6km/h 2.0mph /  3.2km/h 84% 0.00in /  0mm
08:29 7.8 °F /  -13.4 °C 4.0 °F /  -15.6 °C 30.41in /  1029.7hPa Calm   3.0mph /  4.8km/h 84% 0.00in /  0mm
08:34 8.0 °F /  -13.3 °C 4.2 °F /  -15.4 °C 30.41in /  1029.7hPa SE 1.0mph /  1.6km/h 3.0mph /  4.8km/h 84% 0.00in /  0mm
08:39 8.0 °F /  -13.3 °C 3.9 °F /  -15.6 °C 30.41in /  1029.7hPa SE 1.0mph /  1.6km/h 3.0mph /  4.8km/h 83% 0.00in /  0mm
08:44 8.1 °F /  -13.3 °C 4.0 °F /  -15.6 °C 30.41in /  1029.7hPa SE 1.0mph /  1.6km/h 3.0mph /  4.8km/h 83% 0.00in /  0mm
08:49 8.2 °F /  -13.2 °C 4.1 °F /  -15.5 °C 30.41in /  1029.7hPa SE 1.0mph /  1.6km/h 3.0mph /  4.8km/h 83% 0.00in /  0mm
08:54 8.2 °F /  -13.2 °C 3.8 °F /  -15.7 °C 30.40in /  1029.3hPa South 3.0mph /  4.8km/h 4.0mph /  6.4km/h 82% 0.00in /  0mm
08:59 8.2 °F /  -13.2 °C 3.8 °F /  -15.7 °C 30.40in /  1029.3hPa SSE 2.0mph /  3.2km/h 4.0mph /  6.4km/h 82% 0.00in /  0mm
09:04 8.3 °F /  -13.2 °C 3.9 °F /  -15.6 °C 30.40in /  1029.3hPa SSE 2.0mph /  3.2km/h 4.0mph /  6.4km/h 82% 0.00in /  0mm
09:09 8.3 °F /  -13.2 °C 3.7 °F /  -15.7 °C 30.40in /  1029.3hPa SSE 1.0mph /  1.6km/h 4.0mph /  6.4km/h 81% 0.00in /  0mm
09:14 8.3 °F /  -13.2 °C 3.7 °F /  -15.7 °C 30.40in /  1029.3hPa SSE 1.0mph /  1.6km/h 3.0mph /  4.8km/h 81% 0.00in /  0mm
09:19 8.5 °F /  -13.1 °C 3.9 °F /  -15.6 °C 30.41in /  1029.7hPa ESE 2.0mph /  3.2km/h 3.0mph /  4.8km/h 81% 0.00in /  0mm
09:24 8.6 °F /  -13 °C 4.0 °F /  -15.6 °C 30.41in /  1029.7hPa Calm   4.0mph /  6.4km/h 81% 0.00in /  0mm
09:29 8.7 °F /  -12.9 °C 4.1 °F /  -15.5 °C 30.41in /  1029.7hPa South 2.0mph /  3.2km/h 3.0mph /  4.8km/h 81% 0.00in /  0mm
09:34 8.8 °F /  -12.9 °C 4.2 °F /  -15.4 °C 30.41in /  1029.7hPa South 2.0mph /  3.2km/h 5.0mph /  8km/h 81% 0.00in /  0mm
09:39 8.9 °F /  -12.8 °C 4.3 °F /  -15.4 °C 30.41in /  1029.7hPa South 2.0mph /  3.2km/h 5.0mph /  8km/h 81% 0.00in /  0mm
09:44 8.9 °F /  -12.8 °C 4.3 °F /  -15.4 °C 30.41in /  1029.7hPa South 2.0mph /  3.2km/h 5.0mph /  8km/h 81% 0.00in /  0mm
09:49 9.1 °F /  -12.7 °C 4.5 °F /  -15.3 °C 30.41in /  1029.7hPa Calm   2.0mph /  3.2km/h 81% 0.00in /  0mm
09:54 9.6 °F /  -12.4 °C 4.9 °F /  -15.1 °C 30.41in /  1029.7hPa Calm   3.0mph /  4.8km/h 81% 0.00in /  0mm
09:59 10.1 °F /  -12.2 °C 5.2 °F /  -14.9 °C 30.41in /  1029.7hPa South 1.0mph /  1.6km/h 2.0mph /  3.2km/h 80% 0.00in /  0mm
10:04 10.6 °F /  -11.9 °C 5.6 °F /  -14.7 °C 30.41in /  1029.7hPa Calm   2.0mph /  3.2km/h 80% 0.00in /  0mm
10:09 10.7 °F /  -11.8 °C 5.7 °F /  -14.6 °C 30.41in /  1029.7hPa South 1.0mph /  1.6km/h 2.0mph /  3.2km/h 80% 0.00in /  0mm
10:14 11.4 °F /  -11.4 °C 6.4 °F /  -14.2 °C 30.40in /  1029.3hPa Calm     80% 0.00in /  0mm
10:19 12.2 °F /  -11 °C 6.9 °F /  -13.9 °C 30.41in /  1029.7hPa Calm     79% 0.00in /  0mm
10:24 13.0 °F /  -10.6 °C 7.4 °F /  -13.7 °C 30.41in /  1029.7hPa Calm     78% 0.00in /  0mm
10:29 13.6 °F /  -10.2 °C 7.4 °F /  -13.7 °C 30.41in /  1029.7hPa SW 1.0mph /  1.6km/h 4.0mph /  6.4km/h 76% 0.00in /  0mm
10:34 13.8 °F /  -10.1 °C 7.3 °F /  -13.7 °C 30.41in /  1029.7hPa SW 2.0mph /  3.2km/h 4.0mph /  6.4km/h 75% 0.00in /  0mm
10:39 14.2 °F /  -9.9 °C 6.8 °F /  -14 °C 30.41in /  1029.7hPa West 4.0mph /  6.4km/h 4.0mph /  6.4km/h 72% 0.00in /  0mm
10:44 15.1 °F /  -9.4 °C 7.7 °F /  -13.5 °C 30.41in /  1029.7hPa WSW 2.0mph /  3.2km/h 4.0mph /  6.4km/h 72% 0.00in /  0mm
10:49 15.3 °F /  -9.3 °C 7.6 °F /  -13.6 °C 30.41in /  1029.7hPa SW 2.0mph /  3.2km/h 4.0mph /  6.4km/h 71% 0.00in /  0mm
10:54 15.3 °F /  -9.3 °C 7.3 °F /  -13.7 °C 30.41in /  1029.7hPa SW 1.0mph /  1.6km/h 4.0mph /  6.4km/h 70% 0.00in /  0mm
10:59 15.5 °F /  -9.2 °C 7.5 °F /  -13.6 °C 30.40in /  1029.3hPa South 3.0mph /  4.8km/h 4.0mph /  6.4km/h 70% 0.00in /  0mm
11:04 15.9 °F /  -8.9 °C 7.5 °F /  -13.6 °C 30.40in /  1029.3hPa SSW 2.0mph /  3.2km/h 6.0mph /  9.7km/h 69% 0.00in /  0mm
11:09 15.7 °F /  -9.1 °C 7.3 °F /  -13.7 °C 30.40in /  1029.3hPa South 2.0mph /  3.2km/h 5.0mph /  8km/h 69% 0.00in /  0mm
11:14 15.9 °F /  -8.9 °C 7.5 °F /  -13.6 °C 30.40in /  1029.3hPa SW 3.0mph /  4.8km/h 6.0mph /  9.7km/h 69% 0.00in /  0mm
11:19 16.2 °F /  -8.8 °C 7.5 °F /  -13.6 °C 30.40in /  1029.3hPa SSW 3.0mph /  4.8km/h 6.0mph /  9.7km/h 68% 0.01in /  0.25mm
11:24 16.4 °F /  -8.7 °C 8.0 °F /  -13.3 °C 30.39in /  1029hPa South 5.0mph /  8km/h 7.0mph /  11.3km/h 69% 0.01in /  0.25mm
11:29 16.4 °F /  -8.7 °C 7.7 °F /  -13.5 °C 30.39in /  1029hPa SSW 4.0mph /  6.4km/h 6.0mph /  9.7km/h 68% 0.01in /  0.25mm
11:34 16.9 °F /  -8.4 °C 8.5 °F /  -13.1 °C 30.39in /  1029hPa SW 3.0mph /  4.8km/h 6.0mph /  9.7km/h 69% 0.01in /  0.25mm
11:39 17.0 °F /  -8.3 °C 7.9 °F /  -13.4 °C 30.39in /  1029hPa SW 3.0mph /  4.8km/h 6.0mph /  9.7km/h 67% 0.01in /  0.25mm
11:44 17.0 °F /  -8.3 °C 8.3 °F /  -13.2 °C 30.38in /  1028.7hPa WNW 2.0mph /  3.2km/h 5.0mph /  8km/h 68% 0.01in /  0.25mm
11:49 17.0 °F /  -8.3 °C 7.9 °F /  -13.4 °C 30.38in /  1028.7hPa SW 3.0mph /  4.8km/h 8.0mph /  12.9km/h 67% 0.01in /  0.25mm
11:54 17.1 °F /  -8.3 °C 8.7 °F /  -12.9 °C 30.38in /  1028.7hPa South 5.0mph /  8km/h 6.0mph /  9.7km/h 69% 0.01in /  0.25mm
11:59 17.2 °F /  -8.2 °C 8.4 °F /  -13.1 °C 30.38in /  1028.7hPa SW 4.0mph /  6.4km/h 7.0mph /  11.3km/h 68% 0.01in /  0.25mm
12:04 17.5 °F /  -8.1 °C 8.7 °F /  -12.9 °C 30.37in /  1028.3hPa SW 4.0mph /  6.4km/h 7.0mph /  11.3km/h 68% 0.01in /  0.25mm
12:09 17.6 °F /  -8 °C 8.8 °F /  -12.9 °C 30.37in /  1028.3hPa SW 3.0mph /  4.8km/h 6.0mph /  9.7km/h 68% 0.01in /  0.25mm
12:14 17.4 °F /  -8.1 °C 8.0 °F /  -13.3 °C 30.36in /  1028hPa SW 3.0mph /  4.8km/h 6.0mph /  9.7km/h 66% 0.01in /  0.25mm
12:19 17.5 °F /  -8.1 °C 8.4 °F /  -13.1 °C 30.36in /  1028hPa SW 4.0mph /  6.4km/h 8.0mph /  12.9km/h 67% 0.00in /  0mm
12:24 17.7 °F /  -7.9 °C 8.9 °F /  -12.8 °C 30.36in /  1028hPa SSW 7.0mph /  11.3km/h 7.0mph /  11.3km/h 68% 0.00in /  0mm
12:29 17.6 °F /  -8 °C 8.8 °F /  -12.9 °C 30.36in /  1028hPa SW 5.0mph /  8km/h 8.0mph /  12.9km/h 68% 0.00in /  0mm
12:34 17.5 °F /  -8.1 °C 8.7 °F /  -12.9 °C 30.36in /  1028hPa West 6.0mph /  9.7km/h 7.0mph /  11.3km/h 68% 0.00in /  0mm
12:39 17.6 °F /  -8 °C 8.8 °F /  -12.9 °C 30.35in /  1027.7hPa WSW 4.0mph /  6.4km/h 7.0mph /  11.3km/h 68% 0.00in /  0mm
12:44 18.0 °F /  -7.8 °C 9.5 °F /  -12.5 °C 30.35in /  1027.7hPa SSW 3.0mph /  4.8km/h 7.0mph /  11.3km/h 69% 0.00in /  0mm
12:49 18.2 °F /  -7.7 °C 9.7 °F /  -12.4 °C 30.35in /  1027.7hPa SW 6.0mph /  9.7km/h 8.0mph /  12.9km/h 69% 0.00in /  0mm
12:54 18.2 °F /  -7.7 °C 9.7 °F /  -12.4 °C 30.35in /  1027.7hPa SW 5.0mph /  8km/h 7.0mph /  11.3km/h 69% 0.00in /  0mm
12:59 17.9 °F /  -7.8 °C 9.4 °F /  -12.6 °C 30.35in /  1027.7hPa SW 4.0mph /  6.4km/h 11.0mph /  17.7km/h 69% 0.00in /  0mm
13:04 17.7 °F /  -7.9 °C 9.2 °F /  -12.7 °C 30.34in /  1027.3hPa SW 5.0mph /  8km/h 11.0mph /  17.7km/h 69% 0.00in /  0mm
13:09 17.7 °F /  -7.9 °C 9.2 °F /  -12.7 °C 30.34in /  1027.3hPa SW 4.0mph /  6.4km/h 10.0mph /  16.1km/h 69% 0.00in /  0mm
13:14 17.3 °F /  -8.2 °C 9.8 °F /  -12.3 °C 30.34in /  1027.3hPa SW 3.0mph /  4.8km/h 7.0mph /  11.3km/h 72% 0.00in /  0mm
13:19 17.6 °F /  -8 °C 10.1 °F /  -12.2 °C 30.34in /  1027.3hPa SW 3.0mph /  4.8km/h 9.0mph /  14.5km/h 72% 0.00in /  0mm
13:24 17.2 °F /  -8.2 °C 9.7 °F /  -12.4 °C 30.33in /  1027hPa SW 4.0mph /  6.4km/h 7.0mph /  11.3km/h 72% 0.00in /  0mm
13:29 16.9 °F /  -8.4 °C 10.0 °F /  -12.2 °C 30.33in /  1027hPa West 2.0mph /  3.2km/h 6.0mph /  9.7km/h 74% 0.00in /  0mm
13:34 17.0 °F /  -8.3 °C 10.7 °F /  -11.8 °C 30.33in /  1027hPa SW 3.0mph /  4.8km/h 6.0mph /  9.7km/h 76% 0.00in /  0mm
13:39 16.9 °F /  -8.4 °C 10.9 °F /  -11.7 °C 30.33in /  1027hPa SSW 3.0mph /  4.8km/h 6.0mph /  9.7km/h 77% 0.00in /  0mm
13:44 16.7 °F /  -8.5 °C 11.3 °F /  -11.5 °C 30.33in /  1027hPa SSW 4.0mph /  6.4km/h 6.0mph /  9.7km/h 79% 0.00in /  0mm
13:49 16.4 °F /  -8.7 °C 11.3 °F /  -11.5 °C 30.33in /  1027hPa SSW 4.0mph /  6.4km/h 6.0mph /  9.7km/h 80% 0.00in /  0mm
13:54 16.5 °F /  -8.6 °C 12.0 °F /  -11.1 °C 30.33in /  1027hPa SW 3.0mph /  4.8km/h 6.0mph /  9.7km/h 82% 0.00in /  0mm
13:59 16.4 °F /  -8.7 °C 11.9 °F /  -11.2 °C 30.33in /  1027hPa WSW 1.0mph /  1.6km/h 4.0mph /  6.4km/h 82% 0.00in /  0mm
14:04 16.5 °F /  -8.6 °C 12.2 °F /  -11 °C 30.33in /  1027hPa WSW 2.0mph /  3.2km/h 5.0mph /  8km/h 83% 0.00in /  0mm
14:09 16.8 °F /  -8.4 °C 12.8 °F /  -10.7 °C 30.33in /  1027hPa WSW 2.0mph /  3.2km/h 5.0mph /  8km/h 84% 0.00in /  0mm
14:14 16.6 °F /  -8.6 °C 11.8 °F /  -11.2 °C 30.33in /  1027hPa West 2.0mph /  3.2km/h 6.0mph /  9.7km/h 81% 0.00in /  0mm
14:19 16.5 °F /  -8.6 °C 11.7 °F /  -11.3 °C 30.33in /  1027hPa West 3.0mph /  4.8km/h 6.0mph /  9.7km/h 81% 0.00in /  0mm
14:24 16.5 °F /  -8.6 °C 11.7 °F /  -11.3 °C 30.33in /  1027hPa West 3.0mph /  4.8km/h 7.0mph /  11.3km/h 81% 0.00in /  0mm
14:29 16.5 °F /  -8.6 °C 12.0 °F /  -11.1 °C 30.33in /  1027hPa WSW 3.0mph /  4.8km/h 6.0mph /  9.7km/h 82% 0.00in /  0mm
14:34 16.6 °F /  -8.6 °C 12.1 °F /  -11.1 °C 30.33in /  1027hPa WSW 3.0mph /  4.8km/h 4.0mph /  6.4km/h 82% 0.00in /  0mm
14:39 16.7 °F /  -8.5 °C 12.4 °F /  -10.9 °C 30.32in /  1026.6hPa WSW 3.0mph /  4.8km/h 5.0mph /  8km/h 83% 0.00in /  0mm
14:44 16.8 °F /  -8.4 °C 12.8 °F /  -10.7 °C 30.32in /  1026.6hPa WSW 3.0mph /  4.8km/h 5.0mph /  8km/h 84% 0.00in /  0mm
14:49 16.7 °F /  -8.5 °C 12.4 °F /  -10.9 °C 30.32in /  1026.6hPa WSW 2.0mph /  3.2km/h 4.0mph /  6.4km/h 83% 0.00in /  0mm
14:54 16.7 °F /  -8.5 °C 12.4 °F /  -10.9 °C 30.33in /  1027hPa SW 1.0mph /  1.6km/h 5.0mph /  8km/h 83% 0.00in /  0mm
14:59 16.7 °F /  -8.5 °C 12.2 °F /  -11 °C 30.32in /  1026.6hPa SSW 2.0mph /  3.2km/h 3.0mph /  4.8km/h 82% 0.00in /  0mm
15:04 16.8 °F /  -8.4 °C 12.3 °F /  -10.9 °C 30.33in /  1027hPa West 2.0mph /  3.2km/h 4.0mph /  6.4km/h 82% 0.00in /  0mm
15:09 17.0 °F /  -8.3 °C 12.5 °F /  -10.8 °C 30.32in /  1026.6hPa WSW 3.0mph /  4.8km/h 8.0mph /  12.9km/h 82% 0.00in /  0mm
15:14 17.4 °F /  -8.1 °C 11.1 °F /  -11.6 °C 30.33in /  1027hPa WSW 4.0mph /  6.4km/h 11.0mph /  17.7km/h 76% 0.00in /  0mm
15:19 17.4 °F /  -8.1 °C 10.2 °F /  -12.1 °C 30.33in /  1027hPa SW 4.0mph /  6.4km/h 12.0mph /  19.3km/h 73% 0.00in /  0mm
15:24 17.4 °F /  -8.1 °C 9.9 °F /  -12.3 °C 30.33in /  1027hPa West 8.0mph /  12.9km/h 14.0mph /  22.5km/h 72% 0.00in /  0mm
15:29 17.3 °F /  -8.2 °C 9.2 °F /  -12.7 °C 30.32in /  1026.6hPa WNW 11.0mph /  17.7km/h 14.0mph /  22.5km/h 70% 0.00in /  0mm
15:34 17.1 °F /  -8.3 °C 9.0 °F /  -12.8 °C 30.32in /  1026.6hPa West 3.0mph /  4.8km/h 13.0mph /  20.9km/h 70% 0.00in /  0mm
15:39 17.0 °F /  -8.3 °C 9.2 °F /  -12.7 °C 30.32in /  1026.6hPa West 3.0mph /  4.8km/h 10.0mph /  16.1km/h 71% 0.00in /  0mm
15:44 16.8 °F /  -8.4 °C 9.3 °F /  -12.6 °C 30.32in /  1026.6hPa WNW 8.0mph /  12.9km/h 16.0mph /  25.7km/h 72% 0.00in /  0mm
15:49 16.6 °F /  -8.6 °C 9.4 °F /  -12.6 °C 30.32in /  1026.6hPa WNW 7.0mph /  11.3km/h 16.0mph /  25.7km/h 73% 0.00in /  0mm
15:54 16.4 °F /  -8.7 °C 9.6 °F /  -12.4 °C 30.32in /  1026.6hPa WNW 7.0mph /  11.3km/h 15.0mph /  24.1km/h 74% 0.00in /  0mm
15:59 16.3 °F /  -8.7 °C 9.5 °F /  -12.5 °C 30.33in /  1027hPa West 2.0mph /  3.2km/h 10.0mph /  16.1km/h 74% 0.00in /  0mm
16:04 16.3 °F /  -8.7 °C 8.5 °F /  -13.1 °C 30.33in /  1027hPa West 11.0mph /  17.7km/h 16.0mph /  25.7km/h 71% 0.00in /  0mm
16:09 16.1 °F /  -8.8 °C 8.0 °F /  -13.3 °C 30.33in /  1027hPa West 8.0mph /  12.9km/h 14.0mph /  22.5km/h 70% 0.00in /  0mm
16:14 16.1 °F /  -8.8 °C 7.7 °F /  -13.5 °C 30.33in /  1027hPa West 7.0mph /  11.3km/h 14.0mph /  22.5km/h 69% 0.00in /  0mm
16:19 16.0 °F /  -8.9 °C 7.9 °F /  -13.4 °C 30.33in /  1027hPa West 7.0mph /  11.3km/h 13.0mph /  20.9km/h 70% 0.00in /  0mm
16:24 15.7 °F /  -9.1 °C 8.6 °F /  -13 °C 30.33in /  1027hPa West 8.0mph /  12.9km/h 13.0mph /  20.9km/h 73% 0.00in /  0mm
16:29 15.5 °F /  -9.2 °C 8.1 °F /  -13.3 °C 30.33in /  1027hPa WNW 5.0mph /  8km/h 14.0mph /  22.5km/h 72% 0.00in /  0mm
16:34 15.2 °F /  -9.3 °C 7.8 °F /  -13.4 °C 30.33in /  1027hPa West 4.0mph /  6.4km/h 11.0mph /  17.7km/h 72% 0.00in /  0mm
16:39 15.2 °F /  -9.3 °C 7.5 °F /  -13.6 °C 30.33in /  1027hPa WNW 5.0mph /  8km/h 9.0mph /  14.5km/h 71% 0.00in /  0mm
16:44 15.2 °F /  -9.3 °C 7.2 °F /  -13.8 °C 30.33in /  1027hPa NW 6.0mph /  9.7km/h 12.0mph /  19.3km/h 70% 0.00in /  0mm
16:49 15.0 °F /  -9.4 °C 7.0 °F /  -13.9 °C 30.33in /  1027hPa WNW 6.0mph /  9.7km/h 12.0mph /  19.3km/h 70% 0.00in /  0mm
16:54 15.0 °F /  -9.4 °C 7.0 °F /  -13.9 °C 30.33in /  1027hPa West 6.0mph /  9.7km/h 10.0mph /  16.1km/h 70% 0.00in /  0mm
16:59 14.9 °F /  -9.5 °C 6.6 °F /  -14.1 °C 30.33in /  1027hPa West 6.0mph /  9.7km/h 13.0mph /  20.9km/h 69% 0.00in /  0mm
17:04 14.6 °F /  -9.7 °C 5.6 °F /  -14.7 °C 30.33in /  1027hPa West 5.0mph /  8km/h 14.0mph /  22.5km/h 67% 0.00in /  0mm
17:09 14.4 °F /  -9.8 °C 5.8 °F /  -14.6 °C 30.33in /  1027hPa WNW 4.0mph /  6.4km/h 13.0mph /  20.9km/h 68% 0.00in /  0mm
17:14 14.3 °F /  -9.8 °C 5.7 °F /  -14.6 °C 30.33in /  1027hPa West 9.0mph /  14.5km/h 11.0mph /  17.7km/h 68% 0.00in /  0mm
17:19 14.3 °F /  -9.8 °C 5.3 °F /  -14.8 °C 30.33in /  1027hPa WNW 7.0mph /  11.3km/h 13.0mph /  20.9km/h 67% 0.00in /  0mm
17:24 14.1 °F /  -9.9 °C 4.8 °F /  -15.1 °C 30.33in /  1027hPa WNW 7.0mph /  11.3km/h 13.0mph /  20.9km/h 66% 0.00in /  0mm
17:29 13.8 °F /  -10.1 °C 4.5 °F /  -15.3 °C 30.33in /  1027hPa West 7.0mph /  11.3km/h 13.0mph /  20.9km/h 66% 0.00in /  0mm
17:34 13.6 °F /  -10.2 °C 4.3 °F /  -15.4 °C 30.33in /  1027hPa West 8.0mph /  12.9km/h 13.0mph /  20.9km/h 66% 0.00in /  0mm
17:39 13.5 °F /  -10.3 °C 4.2 °F /  -15.4 °C 30.33in /  1027hPa West 10.0mph /  16.1km/h 12.0mph /  19.3km/h 66% 0.00in /  0mm
17:44 13.5 °F /  -10.3 °C 3.9 °F /  -15.6 °C 30.33in /  1027hPa NW 6.0mph /  9.7km/h 14.0mph /  22.5km/h 65% 0.00in /  0mm
17:49 13.4 °F /  -10.3 °C 4.1 °F /  -15.5 °C 30.32in /  1026.6hPa WNW 7.0mph /  11.3km/h 12.0mph /  19.3km/h 66% 0.00in /  0mm
17:54 13.3 °F /  -10.4 °C 4.1 °F /  -15.5 °C 30.33in /  1027hPa WNW 6.0mph /  9.7km/h 14.0mph /  22.5km/h 66% 0.00in /  0mm
17:59 13.2 °F /  -10.4 °C 4.0 °F /  -15.6 °C 30.32in /  1026.6hPa WNW 6.0mph /  9.7km/h 14.0mph /  22.5km/h 66% 0.00in /  0mm
18:04 13.1 °F /  -10.5 °C 3.9 °F /  -15.6 °C 30.32in /  1026.6hPa WNW 6.0mph /  9.7km/h 12.0mph /  19.3km/h 66% 0.00in /  0mm
18:09 13.1 °F /  -10.5 °C 4.2 °F /  -15.4 °C 30.32in /  1026.6hPa North 3.0mph /  4.8km/h 13.0mph /  20.9km/h 67% 0.00in /  0mm
18:14 13.0 °F /  -10.6 °C 4.4 °F /  -15.3 °C 30.32in /  1026.6hPa WNW 5.0mph /  8km/h 10.0mph /  16.1km/h 68% 0.00in /  0mm
18:19 13.2 °F /  -10.4 °C 4.6 °F /  -15.2 °C 30.33in /  1027hPa WNW 9.0mph /  14.5km/h 11.0mph /  17.7km/h 68% 0.00in /  0mm
18:24 13.5 °F /  -10.3 °C 4.9 °F /  -15.1 °C 30.32in /  1026.6hPa WNW 5.0mph /  8km/h 11.0mph /  17.7km/h 68% 0.00in /  0mm
18:29 13.6 °F /  -10.2 °C 5.0 °F /  -15 °C 30.33in /  1027hPa WNW 6.0mph /  9.7km/h 14.0mph /  22.5km/h 68% 0.00in /  0mm
18:34 13.7 °F /  -10.2 °C 5.1 °F /  -14.9 °C 30.33in /  1027hPa WNW 6.0mph /  9.7km/h 11.0mph /  17.7km/h 68% 0.00in /  0mm
18:39 13.7 °F /  -10.2 °C 4.8 °F /  -15.1 °C 30.33in /  1027hPa WNW 6.0mph /  9.7km/h 12.0mph /  19.3km/h 67% 0.00in /  0mm
18:44 13.6 °F /  -10.2 °C 4.3 °F /  -15.4 °C 30.33in /  1027hPa NW 6.0mph /  9.7km/h 12.0mph /  19.3km/h 66% 0.00in /  0mm
18:49 13.5 °F /  -10.3 °C 4.2 °F /  -15.4 °C 30.33in /  1027hPa WNW 6.0mph /  9.7km/h 13.0mph /  20.9km/h 66% 0.00in /  0mm
18:54 13.4 °F /  -10.3 °C 3.8 °F /  -15.7 °C 30.33in /  1027hPa NW 3.0mph /  4.8km/h 14.0mph /  22.5km/h 65% 0.00in /  0mm
18:59 13.2 °F /  -10.4 °C 3.6 °F /  -15.8 °C 30.32in /  1026.6hPa NW 6.0mph /  9.7km/h 16.0mph /  25.7km/h 65% 0.00in /  0mm
19:04 13.1 °F /  -10.5 °C 3.5 °F /  -15.8 °C 30.32in /  1026.6hPa NW 7.0mph /  11.3km/h 16.0mph /  25.7km/h 65% 0.00in /  0mm
19:09 13.1 °F /  -10.5 °C 3.9 °F /  -15.6 °C 30.33in /  1027hPa WNW 4.0mph /  6.4km/h 10.0mph /  16.1km/h 66% 0.00in /  0mm
19:14 13.2 °F /  -10.4 °C 4.0 °F /  -15.6 °C 30.33in /  1027hPa WNW 7.0mph /  11.3km/h 15.0mph /  24.1km/h 66% 0.00in /  0mm
19:19 13.2 °F /  -10.4 °C 4.0 °F /  -15.6 °C 30.33in /  1027hPa WNW 6.0mph /  9.7km/h 15.0mph /  24.1km/h 66% 0.00in /  0mm
19:24 13.3 °F /  -10.4 °C 4.4 °F /  -15.3 °C 30.33in /  1027hPa West 10.0mph /  16.1km/h 13.0mph /  20.9km/h 67% 0.00in /  0mm
19:29 13.2 °F /  -10.4 °C 4.3 °F /  -15.4 °C 30.33in /  1027hPa WNW 6.0mph /  9.7km/h 12.0mph /  19.3km/h 67% 0.00in /  0mm
19:34 13.1 °F /  -10.5 °C 4.5 °F /  -15.3 °C 30.33in /  1027hPa WNW 7.0mph /  11.3km/h 15.0mph /  24.1km/h 68% 0.00in /  0mm
19:39 13.1 °F /  -10.5 °C 4.5 °F /  -15.3 °C 30.33in /  1027hPa WNW 7.0mph /  11.3km/h 15.0mph /  24.1km/h 68% 0.00in /  0mm
19:44 12.9 °F /  -10.6 °C 4.3 °F /  -15.4 °C 30.33in /  1027hPa WNW 7.0mph /  11.3km/h 19.0mph /  30.6km/h 68% 0.00in /  0mm
19:49 12.8 °F /  -10.7 °C 4.2 °F /  -15.4 °C 30.33in /  1027hPa WNW 7.0mph /  11.3km/h 19.0mph /  30.6km/h 68% 0.00in /  0mm
19:54 12.7 °F /  -10.7 °C 4.1 °F /  -15.5 °C 30.33in /  1027hPa WNW 8.0mph /  12.9km/h 13.0mph /  20.9km/h 68% 0.00in /  0mm
19:59 12.7 °F /  -10.7 °C 4.4 °F /  -15.3 °C 30.33in /  1027hPa WNW 6.0mph /  9.7km/h 13.0mph /  20.9km/h 69% 0.00in /  0mm
20:04 12.7 °F /  -10.7 °C 4.8 °F /  -15.1 °C 30.34in /  1027.3hPa WNW 6.0mph /  9.7km/h 11.0mph /  17.7km/h 70% 0.00in /  0mm
20:09 12.8 °F /  -10.7 °C 4.9 °F /  -15.1 °C 30.34in /  1027.3hPa WSW 7.0mph /  11.3km/h 13.0mph /  20.9km/h 70% 0.00in /  0mm
20:14 12.7 °F /  -10.7 °C 4.8 °F /  -15.1 °C 30.33in /  1027hPa WNW 8.0mph /  12.9km/h 10.0mph /  16.1km/h 70% 0.00in /  0mm
20:19 12.6 °F /  -10.8 °C 4.7 °F /  -15.2 °C 30.33in /  1027hPa WNW 11.0mph /  17.7km/h 14.0mph /  22.5km/h 70% 0.00in /  0mm
20:24 12.7 °F /  -10.7 °C 4.8 °F /  -15.1 °C 30.33in /  1027hPa WNW 14.0mph /  22.5km/h 16.0mph /  25.7km/h 70% 0.00in /  0mm
20:29 12.8 °F /  -10.7 °C 4.9 °F /  -15.1 °C 30.34in /  1027.3hPa SW 8.0mph /  12.9km/h 19.0mph /  30.6km/h 70% 0.00in /  0mm
20:34 12.8 °F /  -10.7 °C 5.2 °F /  -14.9 °C 30.34in /  1027.3hPa West 9.0mph /  14.5km/h 15.0mph /  24.1km/h 71% 0.00in /  0mm
20:39 12.7 °F /  -10.7 °C 5.1 °F /  -14.9 °C 30.34in /  1027.3hPa WNW 8.0mph /  12.9km/h 15.0mph /  24.1km/h 71% 0.00in /  0mm
20:44 12.5 °F /  -10.8 °C 4.6 °F /  -15.2 °C 30.33in /  1027hPa WNW 6.0mph /  9.7km/h 13.0mph /  20.9km/h 70% 0.00in /  0mm
20:49 12.1 °F /  -11.1 °C 3.6 °F /  -15.8 °C 30.34in /  1027.3hPa WNW 5.0mph /  8km/h 11.0mph /  17.7km/h 68% 0.00in /  0mm
20:54 11.9 °F /  -11.2 °C 3.7 °F /  -15.7 °C 30.34in /  1027.3hPa WNW 5.0mph /  8km/h 11.0mph /  17.7km/h 69% 0.00in /  0mm
20:59 11.7 °F /  -11.3 °C 3.5 °F /  -15.8 °C 30.34in /  1027.3hPa West 5.0mph /  8km/h 9.0mph /  14.5km/h 69% 0.00in /  0mm
21:04 11.7 °F /  -11.3 °C 2.2 °F /  -16.6 °C 30.34in /  1027.3hPa West 6.0mph /  9.7km/h 15.0mph /  24.1km/h 65% 0.00in /  0mm
21:09 11.7 °F /  -11.3 °C 1.9 °F /  -16.7 °C 30.34in /  1027.3hPa WNW 8.0mph /  12.9km/h 14.0mph /  22.5km/h 64% 0.00in /  0mm
21:14 11.6 °F /  -11.3 °C 1.8 °F /  -16.8 °C 30.34in /  1027.3hPa WNW 8.0mph /  12.9km/h 16.0mph /  25.7km/h 64% 0.00in /  0mm
21:19 11.3 °F /  -11.5 °C 1.8 °F /  -16.8 °C 30.34in /  1027.3hPa WNW 6.0mph /  9.7km/h 12.0mph /  19.3km/h 65% 0.00in /  0mm
21:24 11.3 °F /  -11.5 °C 1.8 °F /  -16.8 °C 30.34in /  1027.3hPa West 4.0mph /  6.4km/h 12.0mph /  19.3km/h 65% 0.00in /  0mm
21:29 11.2 °F /  -11.6 °C 1.4 °F /  -17 °C 30.33in /  1027hPa West 2.0mph /  3.2km/h 14.0mph /  22.5km/h 64% 0.00in /  0mm
21:34 11.4 °F /  -11.4 °C 1.6 °F /  -16.9 °C 30.33in /  1027hPa WNW 10.0mph /  16.1km/h 13.0mph /  20.9km/h 64% 0.00in /  0mm
21:39 11.6 °F /  -11.3 °C 1.8 °F /  -16.8 °C 30.33in /  1027hPa West 7.0mph /  11.3km/h 12.0mph /  19.3km/h 64% 0.00in /  0mm
21:44 11.8 °F /  -11.2 °C 2.0 °F /  -16.7 °C 30.33in /  1027hPa West 7.0mph /  11.3km/h 16.0mph /  25.7km/h 64% 0.00in /  0mm
21:49 11.9 °F /  -11.2 °C 2.4 °F /  -16.4 °C 30.33in /  1027hPa West 7.0mph /  11.3km/h 16.0mph /  25.7km/h 65% 0.00in /  0mm
21:54 12.1 °F /  -11.1 °C 2.6 °F /  -16.3 °C 30.33in /  1027hPa West 9.0mph /  14.5km/h 16.0mph /  25.7km/h 65% 0.00in /  0mm
21:59 12.3 °F /  -10.9 °C 2.8 °F /  -16.2 °C 30.33in /  1027hPa West 10.0mph /  16.1km/h 18.0mph /  29km/h 65% 0.00in /  0mm
22:04 12.3 °F /  -10.9 °C 2.8 °F /  -16.2 °C 30.33in /  1027hPa West 9.0mph /  14.5km/h 20.0mph /  32.2km/h 65% 0.00in /  0mm
22:09 12.4 °F /  -10.9 °C 2.9 °F /  -16.2 °C 30.33in /  1027hPa West 3.0mph /  4.8km/h 13.0mph /  20.9km/h 65% 0.00in /  0mm
22:14 12.3 °F /  -10.9 °C 3.1 °F /  -16.1 °C 30.33in /  1027hPa West 6.0mph /  9.7km/h 11.0mph /  17.7km/h 66% 0.00in /  0mm
22:19 12.2 °F /  -11 °C 3.0 °F /  -16.1 °C 30.33in /  1027hPa West 6.0mph /  9.7km/h 15.0mph /  24.1km/h 66% 0.00in /  0mm
22:24 12.3 °F /  -10.9 °C 3.1 °F /  -16.1 °C 30.33in /  1027hPa WNW 7.0mph /  11.3km/h 13.0mph /  20.9km/h 66% 0.00in /  0mm
22:29 12.3 °F /  -10.9 °C 3.1 °F /  -16.1 °C 30.33in /  1027hPa WSW 15.0mph /  24.1km/h 15.0mph /  24.1km/h 66% 0.00in /  0mm
22:34 12.3 °F /  -10.9 °C 3.1 °F /  -16.1 °C 30.33in /  1027hPa West 7.0mph /  11.3km/h 18.0mph /  29km/h 66% 0.00in /  0mm
22:39 12.2 °F /  -11 °C 3.0 °F /  -16.1 °C 30.32in /  1026.6hPa West 3.0mph /  4.8km/h 14.0mph /  22.5km/h 66% 0.00in /  0mm
22:44 12.0 °F /  -11.1 °C 2.8 °F /  -16.2 °C 30.32in /  1026.6hPa SSW 2.0mph /  3.2km/h 13.0mph /  20.9km/h 66% 0.00in /  0mm
22:49 12.0 °F /  -11.1 °C 2.8 °F /  -16.2 °C 30.32in /  1026.6hPa West 6.0mph /  9.7km/h 15.0mph /  24.1km/h 66% 0.00in /  0mm
22:54 12.1 °F /  -11.1 °C 2.9 °F /  -16.2 °C 30.31in /  1026.3hPa West 6.0mph /  9.7km/h 15.0mph /  24.1km/h 66% 0.00in /  0mm
22:59 12.0 °F /  -11.1 °C 2.5 °F /  -16.4 °C 30.31in /  1026.3hPa West 7.0mph /  11.3km/h 13.0mph /  20.9km/h 65% 0.00in /  0mm
23:04 11.9 °F /  -11.2 °C 2.7 °F /  -16.3 °C 30.31in /  1026.3hPa West 5.0mph /  8km/h 14.0mph /  22.5km/h 66% 0.00in /  0mm
23:09 12.1 °F /  -11.1 °C 2.6 °F /  -16.3 °C 30.31in /  1026.3hPa WNW 8.0mph /  12.9km/h 13.0mph /  20.9km/h 65% 0.00in /  0mm
23:14 12.1 °F /  -11.1 °C 2.6 °F /  -16.3 °C 30.31in /  1026.3hPa West 7.0mph /  11.3km/h 14.0mph /  22.5km/h 65% 0.00in /  0mm
23:19 12.1 °F /  -11.1 °C 2.9 °F /  -16.2 °C 30.31in /  1026.3hPa West 3.0mph /  4.8km/h 13.0mph /  20.9km/h 66% 0.00in /  0mm
23:24 12.1 °F /  -11.1 °C 2.9 °F /  -16.2 °C 30.31in /  1026.3hPa SW 7.0mph /  11.3km/h 11.0mph /  17.7km/h 66% 0.00in /  0mm
23:29 12.1 °F /  -11.1 °C 2.9 °F /  -16.2 °C 30.31in /  1026.3hPa West 5.0mph /  8km/h 11.0mph /  17.7km/h 66% 0.00in /  0mm
23:34 11.9 °F /  -11.2 °C 2.7 °F /  -16.3 °C 30.31in /  1026.3hPa West 6.0mph /  9.7km/h 12.0mph /  19.3km/h 66% 0.00in /  0mm
23:39 11.8 °F /  -11.2 °C 2.6 °F /  -16.3 °C 30.31in /  1026.3hPa WSW 7.0mph /  11.3km/h 9.0mph /  14.5km/h 66% 0.00in /  0mm
23:44 11.8 °F /  -11.2 °C 2.9 °F /  -16.2 °C 30.31in /  1026.3hPa WSW 4.0mph /  6.4km/h 14.0mph /  22.5km/h 67% 0.00in /  0mm
23:49 11.7 °F /  -11.3 °C 2.8 °F /  -16.2 °C 30.31in /  1026.3hPa West 5.0mph /  8km/h 15.0mph /  24.1km/h 67% 0.00in /  0mm
23:54 11.6 °F /  -11.3 °C 3.1 °F /  -16.1 °C 30.31in /  1026.3hPa West 4.0mph /  6.4km/h 10.0mph /  16.1km/h 68% 0.00in /  0mm
23:59 11.7 °F /  -11.3 °C 3.2 °F /  -16 °C 30.30in /  1026hPa West 3.0mph /  4.8km/h 14.0mph /  22.5km/h 68% 0.00in /  0mm
Buffalo, New York, USA
Compliments of Weather Underground - 2.5 mb